Time;durP1;ratioP1;P1;durP2;ratioP2;P2;SDS_P1;SDS_P2;PMS_P1;PMS_P2;Temp;Humidity;BMP_temperature;BMP_pressure;BME280_temperature;BME280_humidity;BME280_pressure;Samples;Min_cycle;Max_cycle;Signal;HPM_P1;HPM_P2
2023/07/22 00:00:14;;;;;;;;;;;23.60;69.40;;;-151.14;100.00;62537.16;4972619;28;19922;-86
2023/07/22 00:02:43;;;;;;;;;;;23.60;69.40;;;-151.14;100.00;62537.16;4957788;28;19930;-87
2023/07/22 00:05:11;;;;;;;;;;;23.60;69.40;;;-151.14;100.00;62537.16;4957656;28;19922;-88
2023/07/22 00:07:40;;;;;;;;;;;23.60;69.40;;;-151.14;100.00;62537.16;4973110;28;19922;-88
2023/07/22 00:10:08;;;;;;;;;;;23.60;69.50;;;-151.14;100.00;62537.16;4957751;28;19922;-88
2023/07/22 00:12:38;;;;;;;;;;;23.60;69.50;;;-151.14;100.00;62537.16;4957487;28;19993;-87
2023/07/22 00:15:07;;;;;;;;;;;23.60;69.60;;;-151.14;100.00;62537.16;4973489;28;19928;-88
2023/07/22 00:17:35;;;;;;;;;;;23.60;70.40;;;-151.14;100.00;62537.16;4972597;28;20210;-88
2023/07/22 00:20:04;;;;;;;;;;;23.60;69.60;;;-151.14;100.00;62537.16;4989733;28;19970;-87
2023/07/22 00:22:32;;;;;;;;;;;23.60;70.30;;;-151.14;100.00;62537.16;4957255;28;19932;-88
2023/07/22 00:25:00;;;;;;;;;;;23.50;69.60;;;-151.14;100.00;62537.16;4957306;28;19922;-88
2023/07/22 00:27:28;;;;;;;;;;;23.60;69.60;;;-151.14;100.00;62537.16;4956543;28;19922;-87
2023/07/22 00:29:58;;;;;;;;;;;23.50;69.80;;;-151.14;100.00;62537.16;4957469;28;19934;-88
2023/07/22 00:32:26;;;;;;;;;;;23.40;69.90;;;-151.14;100.00;62537.16;4957189;28;20121;-88
2023/07/22 00:34:54;;;;;;;;;;;23.40;70.10;;;-151.14;100.00;62537.16;4957254;28;19929;-88
2023/07/22 00:37:22;;;;;;;;;;;23.20;70.50;;;-151.14;100.00;62537.16;4972686;28;19926;-88
2023/07/22 00:39:50;;;;;;;;;;;23.20;70.80;;;-151.14;100.00;62537.16;4957208;28;19929;-88
2023/07/22 00:42:18;;;;;;;;;;;23.10;71.10;;;-151.14;100.00;62537.16;4956978;28;19922;-88
2023/07/22 00:44:46;;;;;;;;;;;23.10;71.50;;;-151.14;100.00;62537.16;4973187;28;19922;-88
2023/07/22 00:47:16;;;;;;;;;;;23.00;71.80;;;-151.14;100.00;62537.16;4956171;28;19929;-88
2023/07/22 00:49:44;;;;;;;;;;;22.90;72.00;;;-151.14;100.00;62537.16;4974086;28;20122;-88
2023/07/22 00:52:11;;;;;;;;;;;22.90;72.40;;;-151.14;100.00;62537.16;4956717;28;19944;-88
2023/07/22 00:54:40;;;;;;;;;;;22.80;72.60;;;-151.14;100.00;62537.16;4957138;28;19922;-88
2023/07/22 00:57:08;;;;;;;;;;;22.80;72.50;;;-151.14;100.00;62537.16;4956177;28;19922;-88
2023/07/22 00:59:36;;;;;;;;;;;22.80;72.80;;;-151.14;100.00;62537.16;4956798;28;19929;-88
2023/07/22 02:31:14;;;;;;;;;;;23.30;70.10;;;22.70;64.35;95865.41;4297367;32;2092320;-84
2023/07/22 02:33:43;;;;;;;;;;;23.30;71.00;;;22.69;64.24;95872.97;5089827;28;36057;-84
2023/07/22 02:36:11;;;;;;;;;;;23.20;70.90;;;22.70;64.54;95871.81;5073491;28;19920;-84
2023/07/22 02:38:39;;;;;;;;;;;23.20;70.70;;;22.71;64.48;95876.22;5073524;28;20114;-84
2023/07/22 02:41:07;;;;;;;;;;;23.30;70.70;;;22.71;64.31;95869.81;5072815;28;19920;-84
2023/07/22 02:43:36;;;;;;;;;;;23.30;70.70;;;22.71;64.36;95875.38;5073536;28;19920;-84
2023/07/22 02:46:05;;;;;;;;;;;23.30;70.70;;;22.72;64.00;95886.19;5073370;28;19920;-84
2023/07/22 02:48:34;;;;;;;;;;;23.30;70.60;;;22.72;64.33;95885.38;5090248;28;19920;-84
2023/07/22 02:51:06;;;;;;;;;;;23.30;70.50;;;22.73;64.22;95884.22;5072498;28;19920;-85
2023/07/22 02:53:34;;;;;;;;;;;23.30;70.50;;;22.74;63.98;95883.06;5089344;28;19920;-85
2023/07/22 02:56:02;;;;;;;;;;;23.30;70.40;;;22.74;63.63;95892.22;5086139;28;19926;-85
2023/07/22 02:58:30;;;;;;;;;;;23.30;71.00;;;22.71;63.66;95881.78;5066312;28;19920;-84
2023/07/22 03:00:58;;;;;;;;;;;23.30;70.10;;;22.72;63.76;95888.19;5072318;28;20118;-85
2023/07/22 03:03:26;;;;;;;;;;;23.30;70.10;;;22.72;63.56;95902.13;5072825;28;19920;-85
2023/07/22 03:05:57;;;;;;;;;;;23.30;69.90;;;22.71;63.53;95900.50;5069932;28;20096;-86
2023/07/22 03:08:25;;;;;;;;;;;23.30;69.90;;;22.69;63.14;95906.44;5064467;28;20101;-85
2023/07/22 03:10:53;;;;;;;;;;;23.30;69.70;;;22.68;63.18;95900.03;5072299;28;19920;-85
2023/07/22 03:13:21;;;;;;;;;;;23.30;69.70;;;22.67;63.50;95900.41;5072875;28;20215;-85
2023/07/22 03:15:48;;;;;;;;;;;23.30;69.70;;;22.67;63.75;95904.00;5089600;28;19926;-86
2023/07/22 03:18:16;;;;;;;;;;;23.20;69.70;;;22.67;63.38;95915.16;5073019;28;19920;-86
2023/07/22 03:20:44;;;;;;;;;;;23.20;69.70;;;22.68;63.58;95910.41;5072083;28;20115;-86
2023/07/22 03:23:13;;;;;;;;;;;23.30;69.90;;;22.68;63.58;95911.22;5072755;28;19926;-86
2023/07/22 03:25:42;;;;;;;;;;;23.30;69.80;;;22.70;63.50;95912.84;5072919;28;20344;-86
2023/07/22 03:28:10;;;;;;;;;;;23.30;69.90;;;22.71;63.57;95914.47;5072831;28;19927;-85
2023/07/22 03:30:38;;;;;;;;;;;23.30;69.90;;;22.70;63.60;95919.25;5066721;28;20111;-85
2023/07/22 03:33:06;;;;;;;;;;;23.30;69.80;;;22.74;63.65;95913.75;5075852;28;19926;-85
2023/07/22 03:35:34;;;;;;;;;;;23.30;69.90;;;22.74;63.29;95919.31;5059369;28;19920;-86
2023/07/22 03:38:02;;;;;;;;;;;23.30;69.70;;;22.75;63.52;95916.16;5075983;28;19920;-86
2023/07/22 03:40:32;;;;;;;;;;;23.30;69.70;;;22.78;63.28;95925.81;5058409;28;19920;-86
2023/07/22 03:43:00;;;;;;;;;;;23.30;69.70;;;22.77;63.60;95930.59;5059111;28;20461;-85
2023/07/22 03:45:28;;;;;;;;;;;23.30;69.70;;;22.79;63.48;95939.41;5059170;28;19920;-86
2023/07/22 03:47:57;;;;;;;;;;;23.30;69.60;;;22.79;63.30;95944.16;5075835;28;20257;-85
2023/07/22 03:50:25;;;;;;;;;;;23.40;69.60;;;22.81;63.31;95947.41;5075191;28;19942;-86
2023/07/22 03:52:53;;;;;;;;;;;23.40;69.60;;;22.81;63.51;95947.41;5054844;28;19974;-86
2023/07/22 03:55:21;;;;;;;;;;;23.40;69.60;;;22.83;63.47;95950.66;5058939;28;20208;-85
2023/07/22 03:57:50;;;;;;;;;;;23.40;69.50;;;22.82;63.64;95949.88;5058775;28;19939;-86
2023/07/22 04:00:19;;;;;;;;;;;23.40;69.60;;;22.83;63.46;95959.03;5074803;28;20215;-86
2023/07/22 04:02:47;;;;;;;;;;;23.40;69.40;;;22.82;63.24;95954.63;5058776;28;20230;-86
2023/07/22 04:05:15;;;;;;;;;;;23.40;69.40;;;22.80;63.10;95952.19;5093358;28;19928;-86
2023/07/22 04:07:42;;;;;;;;;;;23.40;69.30;;;22.79;63.45;95949.75;5055601;28;19935;-86
2023/07/22 04:10:10;;;;;;;;;;;23.40;69.60;;;22.78;62.96;95951.75;5038175;28;19921;-86
2023/07/22 04:12:38;;;;;;;;;;;23.40;69.40;;;22.77;63.43;95957.69;5043655;28;19920;-86
2023/07/22 04:15:08;;;;;;;;;;;23.30;69.40;;;22.73;63.66;95948.41;5038834;28;19925;-86
2023/07/22 04:17:36;;;;;;;;;;;23.30;69.70;;;22.72;63.69;95957.94;5039150;28;20336;-85
2023/07/22 04:20:08;;;;;;;;;;;23.30;69.80;;;22.72;63.65;95955.16;5038165;28;19927;-85
2023/07/22 04:22:36;;;;;;;;;;;23.30;70.00;;;22.74;63.79;95955.59;5055292;28;19920;-86
2023/07/22 04:25:05;;;;;;;;;;;23.30;70.10;;;22.75;63.62;95971.97;5038392;28;19920;-86
2023/07/22 04:27:33;;;;;;;;;;;23.30;70.10;;;22.76;63.93;95975.59;5055197;28;19921;-86
2023/07/22 04:30:01;;;;;;;;;;;23.40;70.20;;;22.78;63.88;95967.69;5054423;28;19920;-86
2023/07/22 04:32:30;;;;;;;;;;;23.30;70.10;;;22.79;63.58;95967.31;5038336;28;19921;-86
2023/07/22 04:34:58;;;;;;;;;;;23.40;70.20;;;22.80;63.76;95962.53;5067239;28;19943;-86
2023/07/22 04:37:27;;;;;;;;;;;23.40;70.20;;;22.83;63.60;95973.00;5058201;28;19920;-85
2023/07/22 04:39:55;;;;;;;;;;;23.40;70.20;;;22.83;63.95;95968.25;5057436;28;19926;-86
2023/07/22 04:42:23;;;;;;;;;;;23.40;70.20;;;22.86;64.09;95971.47;5073965;28;20110;-86
2023/07/22 04:44:50;;;;;;;;;;;23.40;70.40;;;22.88;63.88;95981.13;5058146;28;20234;-86
2023/07/22 04:47:18;;;;;;;;;;;23.40;70.30;;;22.93;64.34;95974.47;5074791;28;19920;-86
2023/07/22 04:49:48;;;;;;;;;;;23.50;70.50;;;22.95;63.84;95967.34;5057400;28;19928;-86
2023/07/22 04:52:17;;;;;;;;;;;23.50;70.40;;;22.97;64.10;95970.59;5058019;28;19999;-85
2023/07/22 04:54:47;;;;;;;;;;;23.50;70.50;;;23.02;64.22;95974.31;5057937;28;19920;-86
2023/07/22 04:57:16;;;;;;;;;;;23.60;70.60;;;23.03;63.83;95987.09;5074697;28;20123;-86
2023/07/22 04:59:44;;;;;;;;;;;23.60;70.20;;;23.03;63.73;95981.50;5091907;28;19920;-86
2023/07/22 05:02:12;;;;;;;;;;;23.60;70.10;;;23.02;63.82;95982.69;5074873;28;19920;-86
2023/07/22 05:04:40;;;;;;;;;;;23.60;70.20;;;23.04;63.78;95994.31;5091231;28;19927;-85
2023/07/22 05:07:09;;;;;;;;;;;23.60;70.00;;;23.03;63.83;95993.47;5073750;28;20184;-85
2023/07/22 05:09:37;;;;;;;;;;;23.60;70.00;;;23.04;63.76;95992.31;5057638;28;19920;-86
2023/07/22 05:12:06;;;;;;;;;;;23.60;70.20;;;23.05;63.65;95993.13;5057586;28;19920;-86
2023/07/22 05:14:34;;;;;;;;;;;23.60;70.10;;;23.04;63.83;95991.53;5057594;28;19926;-86
2023/07/22 05:17:02;;;;;;;;;;;23.60;70.40;;;23.08;63.94;95992.41;5057676;28;19927;-85
2023/07/22 05:19:30;;;;;;;;;;;23.60;70.30;;;23.09;64.17;95980.91;5057592;28;19920;-85
2023/07/22 05:21:58;;;;;;;;;;;23.60;70.30;;;23.12;64.37;95976.56;5056774;28;20211;-86
2023/07/22 05:24:27;;;;;;;;;;;23.60;70.60;;;23.18;63.94;95988.28;5057521;28;20234;-85
2023/07/22 05:26:55;;;;;;;;;;;23.70;70.70;;;23.21;63.83;95994.00;5057596;28;19920;-85
2023/07/22 05:29:23;;;;;;;;;;;23.70;70.50;;;23.25;64.17;96000.50;5057424;28;19919;-86
2023/07/22 05:31:51;;;;;;;;;;;23.70;70.40;;;23.27;63.98;96006.53;5073761;28;19920;-85
2023/07/22 05:34:18;;;;;;;;;;;23.80;70.40;;;23.30;63.68;96007.78;5073976;28;19927;-86
2023/07/22 05:36:46;;;;;;;;;;;23.80;70.00;;;23.31;63.58;96015.00;5074170;28;19920;-85
2023/07/22 05:39:17;;;;;;;;;;;23.80;69.90;;;23.33;63.39;96017.41;5057151;28;19926;-86
2023/07/22 05:41:46;;;;;;;;;;;23.80;69.80;;;23.35;63.04;96020.69;5061734;28;19936;-85
2023/07/22 05:44:14;;;;;;;;;;;23.80;69.60;;;23.37;63.35;96029.50;5071619;28;19921;-85
2023/07/22 05:46:42;;;;;;;;;;;23.80;69.60;;;23.39;63.15;96035.56;5037388;28;20208;-85
2023/07/22 05:49:10;;;;;;;;;;;23.90;69.80;;;23.45;63.25;96031.31;5052187;28;19927;-85
2023/07/22 05:51:38;;;;;;;;;;;23.90;69.60;;;23.49;62.98;96034.22;5073348;28;19920;-85
2023/07/22 05:54:06;;;;;;;;;;;24.00;69.40;;;23.54;63.11;96026.38;5073306;28;19920;-85
2023/07/22 05:56:34;;;;;;;;;;;24.00;69.30;;;23.58;62.91;96040.44;5057116;28;19919;-85
2023/07/22 05:59:03;;;;;;;;;;;24.00;69.00;;;23.66;62.72;96044.22;5073670;28;19920;-84
2023/07/22 06:01:31;;;;;;;;;;;24.20;69.10;;;23.70;62.48;96031.13;5073020;28;19920;-85
2023/07/22 06:03:59;;;;;;;;;;;24.20;68.80;;;23.75;62.55;96033.69;5073506;28;19927;-85
2023/07/22 06:06:28;;;;;;;;;;;24.20;68.70;;;23.82;62.15;96033.03;5055986;28;19920;-84
2023/07/22 06:08:56;;;;;;;;;;;24.30;68.70;;;23.86;62.14;96034.75;5036914;28;19921;-85
2023/07/22 06:11:24;;;;;;;;;;;24.30;68.50;;;23.90;61.96;96029.25;5036384;28;19942;-85
2023/07/22 06:13:52;;;;;;;;;;;24.40;68.30;;;23.96;61.76;96038.19;5053530;28;19927;-84
2023/07/22 06:16:21;;;;;;;;;;;24.40;68.10;;;24.00;61.96;96041.91;5037001;28;19920;-84
2023/07/22 06:18:49;;;;;;;;;;;24.50;68.10;;;24.03;61.88;96032.78;5036733;28;19921;-84
2023/07/22 06:21:17;;;;;;;;;;;24.50;68.10;;;24.08;61.86;96035.28;5052786;28;20216;-84
2023/07/22 06:23:45;;;;;;;;;;;24.60;68.00;;;24.11;61.70;96028.97;5053304;28;19927;-84
2023/07/22 06:26:13;;;;;;;;;;;24.60;67.90;;;24.14;61.43;96031.06;5036838;28;19920;-84
2023/07/22 06:28:41;;;;;;;;;;;24.60;67.80;;;24.16;61.43;96030.69;5036731;28;19920;-84
2023/07/22 06:31:08;;;;;;;;;;;24.60;67.60;;;24.17;61.50;96030.34;5035946;28;19931;-84
2023/07/22 06:33:38;;;;;;;;;;;24.70;67.60;;;24.19;61.40;96021.56;5036713;28;19921;-84
2023/07/22 06:36:06;;;;;;;;;;;24.60;67.60;;;24.20;61.44;96018.38;5051336;28;19920;-84
2023/07/22 06:38:33;;;;;;;;;;;24.70;67.60;;;24.21;61.20;96028.41;5056468;28;20015;-84
2023/07/22 06:41:01;;;;;;;;;;;24.70;67.60;;;24.24;61.10;96026.06;5056243;28;20119;-84
2023/07/22 06:43:29;;;;;;;;;;;24.70;67.50;;;24.25;61.19;96022.09;5056606;28;19920;-84
2023/07/22 06:45:57;;;;;;;;;;;24.70;67.40;;;24.25;60.93;96022.09;5072913;28;20115;-84
2023/07/22 06:48:25;;;;;;;;;;;24.70;67.30;;;24.27;61.15;96020.53;5056351;28;19920;-84
2023/07/22 06:50:54;;;;;;;;;;;24.70;67.30;;;24.29;61.07;96028.59;5055816;28;19920;-84
2023/07/22 06:53:22;;;;;;;;;;;24.80;67.30;;;24.29;60.98;96023.78;5072885;28;19920;-84
2023/07/22 06:55:51;;;;;;;;;;;24.80;67.20;;;24.32;60.85;96031.47;5056385;28;19927;-84
2023/07/22 06:58:19;;;;;;;;;;;24.80;67.10;;;24.33;60.89;96019.09;5056560;28;20346;-84
2023/07/22 07:00:46;;;;;;;;;;;24.80;67.10;;;24.37;60.83;96030.34;5072124;28;20212;-84
2023/07/22 07:03:14;;;;;;;;;;;24.80;67.10;;;24.39;60.80;96044.81;5056191;28;19926;-84
2023/07/22 07:05:42;;;;;;;;;;;24.80;66.90;;;24.43;60.66;96044.88;5056710;28;19973;-83
2023/07/22 07:08:11;;;;;;;;;;;24.80;66.90;;;24.45;60.74;96056.53;5076571;28;19920;-84
2023/07/22 07:10:40;;;;;;;;;;;24.90;67.00;;;24.46;60.59;96050.53;5059108;28;20227;-83
2023/07/22 07:13:09;;;;;;;;;;;24.90;66.80;;;24.50;60.54;96056.25;5076282;28;19928;-82
2023/07/22 07:15:36;;;;;;;;;;;24.90;66.80;;;24.51;60.44;96069.84;5059770;28;19926;-83
2023/07/22 07:18:05;;;;;;;;;;;24.90;66.70;;;24.52;60.40;96065.88;5076426;28;19921;-83
2023/07/22 07:20:33;;;;;;;;;;;25.00;66.50;;;24.55;60.20;96069.94;5057775;28;19920;-83
2023/07/22 07:23:00;;;;;;;;;;;25.00;66.50;;;24.55;60.42;96072.72;5075966;28;19973;-83
2023/07/22 07:25:30;;;;;;;;;;;25.00;66.40;;;24.53;60.08;96080.69;5059287;28;19920;-83
2023/07/22 07:27:57;;;;;;;;;;;25.00;66.40;;;24.49;60.38;96077.81;5059309;28;19926;-83
2023/07/22 07:30:25;;;;;;;;;;;25.00;66.40;;;24.44;60.55;96080.91;5093242;28;19927;-83
2023/07/22 07:32:53;;;;;;;;;;;25.00;66.50;;;24.39;60.67;96092.38;5076253;28;20115;-82
2023/07/22 07:35:21;;;;;;;;;;;24.90;66.60;;;24.33;60.76;96091.84;5075897;28;19978;-82
2023/07/22 07:37:49;;;;;;;;;;;24.80;66.60;;;24.29;60.79;96095.72;5059227;28;19927;-82
2023/07/22 07:40:17;;;;;;;;;;;24.80;66.70;;;24.24;60.88;96090.41;5073717;28;19920;-83
2023/07/22 07:42:46;;;;;;;;;;;24.80;66.80;;;24.21;61.27;96081.56;5059147;28;19926;-83
2023/07/22 07:45:14;;;;;;;;;;;24.70;67.10;;;24.20;61.05;96091.13;5075607;28;20238;-83
2023/07/22 07:47:42;;;;;;;;;;;24.70;67.10;;;24.20;61.25;96084.72;5075728;28;19930;-83
2023/07/22 07:50:10;;;;;;;;;;;24.70;67.10;;;24.22;61.02;96090.78;5058547;28;20207;-82
2023/07/22 07:52:39;;;;;;;;;;;24.70;67.20;;;24.24;61.26;96087.59;5058843;28;20212;-82
2023/07/22 07:55:08;;;;;;;;;;;24.70;67.20;;;24.26;61.19;96083.28;5058976;28;19982;-83
2023/07/22 07:58:02;;;;;;;;;;;24.70;67.10;;;24.29;60.79;96088.13;5053601;28;19942;-82
2023/07/22 08:00:33;;;;;;;;;;;24.80;67.10;;;24.32;60.88;96093.00;5063209;28;19950;-82
2023/07/22 08:03:01;;;;;;;;;;;24.80;67.00;;;24.36;60.78;96084.69;5093419;28;19920;-82
2023/07/22 08:05:29;;;;;;;;;;;24.80;66.90;;;24.41;60.75;96095.63;5075447;28;20115;-82
2023/07/22 08:07:57;;;;;;;;;;;24.80;66.80;;;24.43;60.80;96098.88;5075326;28;20230;-82
2023/07/22 08:10:25;;;;;;;;;;;24.90;66.90;;;24.44;60.71;96091.28;5092712;28;19920;-82
2023/07/22 08:12:53;;;;;;;;;;;24.90;66.80;;;24.43;60.63;96098.88;5093342;28;19920;-82
2023/07/22 08:15:23;;;;;;;;;;;24.90;66.70;;;24.42;60.88;96100.03;5070690;28;19927;-82
2023/07/22 08:17:54;;;;;;;;;;;24.90;66.70;;;24.42;60.72;96094.44;5048591;28;19920;-82
2023/07/22 08:20:22;;;;;;;;;;;24.90;66.70;;;24.43;60.80;96096.06;5049428;28;19921;-82
2023/07/22 08:22:50;;;;;;;;;;;24.90;66.60;;;24.45;60.71;96099.31;5055038;28;19920;-81
2023/07/22 08:25:18;;;;;;;;;;;24.90;66.60;;;24.46;60.65;96100.91;5038483;28;19924;-81
2023/07/22 08:27:46;;;;;;;;;;;25.00;66.60;;;24.47;60.60;96096.94;5041258;28;19934;-82
2023/07/22 08:30:14;;;;;;;;;;;25.00;66.60;;;24.48;60.64;96098.56;5092373;28;19927;-82
2023/07/22 08:32:44;;;;;;;;;;;25.00;66.50;;;24.49;60.34;96097.38;5058135;28;19921;-82
2023/07/22 08:35:12;;;;;;;;;;;25.00;66.40;;;24.52;60.54;96105.06;5033477;23;20113;-88
2023/07/22 08:37:39;;;;;;;;;;;25.00;66.40;;;24.54;60.46;96103.91;4995726;28;19921;-88
2023/07/22 08:40:09;;;;;;;;;;;25.00;66.70;;;24.55;60.30;96102.72;4995194;28;19922;-88
2023/07/22 08:42:37;;;;;;;;;;;25.00;66.40;;;24.55;60.26;96108.31;4979478;28;19922;-87
2023/07/22 08:45:06;;;;;;;;;;;25.00;66.30;;;24.56;60.42;96107.16;4964200;28;19922;-88
2023/07/22 08:47:34;;;;;;;;;;;25.00;66.20;;;24.55;60.45;96113.91;4960048;28;19928;-88
2023/07/22 08:50:04;;;;;;;;;;;25.00;66.30;;;24.54;60.48;96109.50;4975733;28;20229;-88
2023/07/22 08:52:32;;;;;;;;;;;25.00;66.30;;;24.54;60.44;96112.28;4960081;28;19928;-88
2023/07/22 08:55:00;;;;;;;;;;;25.00;67.10;;;24.54;60.66;96103.91;4976101;28;19922;-87
2023/07/22 08:57:28;;;;;;;;;;;25.00;66.20;;;24.52;60.53;96088.28;4960044;28;19936;-88
2023/07/22 08:59:57;;;;;;;;;;;25.00;66.30;;;24.52;60.60;96096.66;4959454;28;19952;-88
2023/07/22 09:02:25;;;;;;;;;;;25.00;66.40;;;24.49;60.52;96088.19;4959694;28;20093;-88
2023/07/22 09:04:53;;;;;;;;;;;25.00;66.30;;;24.50;60.47;96087.81;4959873;28;19922;-88
2023/07/22 09:07:23;;;;;;;;;;;25.00;66.40;;;24.50;60.54;96087.81;4992120;28;19928;-88
2023/07/22 09:09:51;;;;;;;;;;;25.00;66.40;;;24.48;60.56;96092.97;4959291;28;19922;-88
2023/07/22 09:12:19;;;;;;;;;;;25.00;66.40;;;24.48;60.61;96092.97;4975686;28;19922;-87
2023/07/22 09:14:47;;;;;;;;;;;25.00;66.40;;;24.47;60.51;96102.53;4975838;28;20117;-88
2023/07/22 09:17:15;;;;;;;;;;;25.00;66.50;;;24.46;60.84;96100.13;4975505;28;19922;-88
2023/07/22 09:19:43;;;;;;;;;;;25.00;66.50;;;24.46;60.85;96095.31;4959165;28;19921;-88
2023/07/22 09:22:11;;;;;;;;;;;25.00;66.60;;;24.46;60.72;96100.13;4975497;28;19928;-88
2023/07/22 09:24:40;;;;;;;;;;;25.00;66.60;;;24.45;60.73;96104.91;4959553;28;19928;-87
2023/07/22 09:27:08;;;;;;;;;;;25.00;66.50;;;24.45;60.73;96110.50;4975448;28;19928;-87
2023/07/22 09:29:37;;;;;;;;;;;25.00;66.60;;;24.45;60.70;96101.28;4974772;28;19928;-88
2023/07/22 09:32:06;;;;;;;;;;;25.00;66.60;;;24.45;60.58;96104.09;4991533;28;19922;-87
2023/07/22 09:34:34;;;;;;;;;;;25.00;66.70;;;24.44;60.74;96100.50;4959343;28;19922;-87
2023/07/22 09:37:03;;;;;;;;;;;25.00;66.70;;;24.44;60.60;96106.09;4975399;28;19922;-87
2023/07/22 09:39:31;;;;;;;;;;;25.00;66.70;;;24.43;60.94;96107.25;4980554;28;20117;-88
2023/07/22 09:42:02;;;;;;;;;;;25.00;66.70;;;24.41;60.86;96108.78;4991083;28;20213;-89
2023/07/22 09:44:31;;;;;;;;;;;25.00;66.70;;;24.42;60.98;96105.63;4991559;28;19922;-87
2023/07/22 09:47:00;;;;;;;;;;;25.00;66.70;;;24.43;60.77;96106.44;4975456;28;20217;-88
2023/07/22 09:49:28;;;;;;;;;;;24.90;66.70;;;24.42;61.11;96110.41;4991512;28;19922;-88
2023/07/22 09:51:56;;;;;;;;;;;24.90;66.70;;;24.42;60.85;96110.41;4990598;28;19921;-88
2023/07/22 09:54:23;;;;;;;;;;;24.90;66.70;;;24.41;60.89;96118.00;4991298;28;20241;-88
2023/07/22 09:56:51;;;;;;;;;;;24.90;66.80;;;24.37;60.92;96105.91;4975120;28;19922;-88
2023/07/22 09:59:21;;;;;;;;;;;24.90;66.80;;;24.40;61.08;96118.38;4975022;28;19948;-89
2023/07/22 10:01:49;;;;;;;;;;;24.90;66.80;;;24.38;61.03;96129.91;4990549;28;19928;-88
2023/07/22 10:04:17;;;;;;;;;;;24.90;67.00;;;24.37;61.28;96136.69;4991133;28;19928;-87
2023/07/22 10:06:45;;;;;;;;;;;24.90;67.00;;;24.38;60.94;96127.13;4975120;28;19928;-88
2023/07/22 10:09:13;;;;;;;;;;;24.90;66.90;;;24.35;61.16;96136.22;4975130;28;19928;-88
2023/07/22 10:11:41;;;;;;;;;;;24.90;67.00;;;24.37;60.91;96133.88;4991841;28;20125;-88
2023/07/22 10:14:09;;;;;;;;;;;24.90;67.00;;;24.39;60.90;96133.53;4991132;28;19921;-88
2023/07/22 10:16:38;;;;;;;;;;;24.90;66.90;;;24.38;61.11;96129.13;4975108;28;20213;-88
2023/07/22 10:19:06;;;;;;;;;;;24.90;67.00;;;24.39;61.37;96128.75;4991279;28;20235;-89
2023/07/22 10:21:35;;;;;;;;;;;24.90;67.00;;;24.40;60.82;96135.97;4974487;28;19928;-88
2023/07/22 10:24:03;;;;;;;;;;;24.90;67.00;;;24.41;60.83;96131.16;4958711;28;19928;-88
2023/07/22 10:26:31;;;;;;;;;;;25.00;67.00;;;24.40;61.04;96140.75;4974784;28;20097;-88
2023/07/22 10:29:00;;;;;;;;;;;24.90;67.00;;;24.39;60.87;96139.94;4974783;28;19928;-89
2023/07/22 10:31:31;;;;;;;;;;;24.90;67.00;;;24.42;61.25;96138.38;5007102;28;19928;-89
2023/07/22 10:34:01;;;;;;;;;;;24.90;67.00;;;24.40;61.08;96140.75;4958414;28;19928;-89
2023/07/22 10:36:30;;;;;;;;;;;24.90;67.00;;;24.39;61.25;96134.34;4974893;28;19922;-89
2023/07/22 10:38:58;;;;;;;;;;;24.90;67.00;;;24.40;61.04;96132.38;4958797;28;19929;-89
2023/07/22 10:41:26;;;;;;;;;;;24.90;67.10;;;24.37;61.09;96142.28;4959890;28;19928;-89
2023/07/22 10:43:55;;;;;;;;;;;24.90;67.10;;;24.37;61.19;96142.28;4962012;28;19928;-89
2023/07/22 10:46:32;;;;;;;;;;;24.90;67.20;;;24.36;61.12;96152.66;4962036;28;19922;-89
2023/07/22 10:49:13;;;;;;;;;;;24.90;67.20;;;24.34;61.52;96138.22;4961989;28;19922;-89
2023/07/22 10:51:41;;;;;;;;;;;24.90;67.20;;;24.36;61.05;96154.63;4977971;28;19926;-89
2023/07/22 10:54:12;;;;;;;;;;;24.90;67.20;;;24.35;61.34;96141.81;4961863;28;19921;-89
2023/07/22 10:56:42;;;;;;;;;;;24.90;67.30;;;24.35;61.17;96133.44;4978185;28;20205;-88
2023/07/22 10:59:11;;;;;;;;;;;24.90;67.20;;;24.33;61.11;96138.59;4961879;28;19922;-89
2023/07/22 11:01:39;;;;;;;;;;;24.90;67.20;;;24.33;61.24;96133.00;4977863;28;19922;-89
2023/07/22 11:04:22;;;;;;;;;;;24.80;67.10;;;24.33;61.22;96147.00;4977729;28;19922;-89
2023/07/22 11:06:55;;;;;;;;;;;24.90;67.20;;;24.33;61.34;96152.59;4961826;28;20192;-89
2023/07/22 11:09:39;;;;;;;;;;;24.80;67.20;;;24.32;61.20;96146.16;4977909;28;19928;-89
2023/07/22 11:12:08;;;;;;;;;;;24.80;67.20;;;24.31;61.44;96149.34;4993829;28;19921;-89
2023/07/22 11:14:38;;;;;;;;;;;24.80;67.20;;;24.29;61.43;96151.69;4993580;28;20209;-88
2023/07/22 11:17:08;;;;;;;;;;;24.80;67.30;;;24.31;61.44;96149.34;4961677;28;19928;-88
2023/07/22 11:19:38;;;;;;;;;;;24.80;67.30;;;24.29;61.61;96152.47;4993839;28;19922;-89
2023/07/22 11:22:06;;;;;;;;;;;24.80;67.30;;;24.29;61.35;96148.88;4993666;28;19922;-89
2023/07/22 11:24:35;;;;;;;;;;;24.80;67.20;;;24.28;61.28;96147.25;4977454;28;19922;-88
2023/07/22 11:27:04;;;;;;;;;;;24.80;67.30;;;24.28;61.48;96158.44;4993633;28;20231;-88
2023/07/22 11:29:32;;;;;;;;;;;24.80;67.40;;;24.27;61.66;96149.22;4977557;28;19929;-88
2023/07/22 11:32:00;;;;;;;;;;;24.80;67.40;;;24.27;61.76;96154.81;4977395;28;19922;-88
2023/07/22 11:34:28;;;;;;;;;;;24.80;67.40;;;24.25;61.67;96150.75;4993297;28;19922;-88
2023/07/22 11:36:58;;;;;;;;;;;24.80;67.40;;;24.27;61.65;96154.03;4977311;28;19922;-89
2023/07/22 11:39:27;;;;;;;;;;;24.80;67.50;;;24.26;61.30;96153.22;4961416;28;19922;-89
2023/07/22 11:41:55;;;;;;;;;;;24.80;67.50;;;24.27;61.55;96148.44;4977010;28;19928;-88
2023/07/22 11:44:23;;;;;;;;;;;24.80;67.60;;;24.26;61.48;96141.19;4977218;28;19922;-87
2023/07/22 11:46:54;;;;;;;;;;;24.80;67.60;;;24.26;61.68;96142.03;4977356;28;20116;-88
2023/07/22 11:49:26;;;;;;;;;;;24.80;67.60;;;24.23;61.65;96137.16;5009615;28;19929;-88
2023/07/22 11:52:00;;;;;;;;;;;24.80;67.60;;;24.23;61.60;96136.31;4976644;28;19928;-87
2023/07/22 11:54:28;;;;;;;;;;;24.80;68.40;;;24.24;61.71;96138.78;4976971;28;20213;-88
2023/07/22 11:56:56;;;;;;;;;;;24.80;67.60;;;24.24;61.65;96137.94;5009592;28;19922;-88
2023/07/22 11:59:34;;;;;;;;;;;24.80;67.60;;;24.23;61.57;96139.13;4960938;28;19928;-88
2023/07/22 12:02:02;;;;;;;;;;;24.80;67.60;;;24.23;61.79;96130.72;4960986;28;19922;-88
2023/07/22 12:04:30;;;;;;;;;;;24.80;67.60;;;24.21;61.75;96129.09;4960832;28;20221;-88
2023/07/22 12:07:00;;;;;;;;;;;24.70;67.60;;;24.23;61.79;96127.94;4977023;28;19925;-88
2023/07/22 12:09:28;;;;;;;;;;;24.70;67.60;;;24.21;61.71;96123.50;4993011;28;19921;-87
2023/07/22 12:11:57;;;;;;;;;;;24.70;67.60;;;24.21;61.50;96129.09;4992830;28;20020;-88
2023/07/22 12:14:25;;;;;;;;;;;24.70;67.60;;;24.21;61.58;96123.50;4976782;28;19921;-87
2023/07/22 12:16:56;;;;;;;;;;;24.70;67.60;;;24.20;61.42;96121.88;4994139;28;20106;-87
2023/07/22 12:19:24;;;;;;;;;;;24.70;67.70;;;24.19;61.61;96125.88;4992994;28;19928;-87
2023/07/22 12:21:52;;;;;;;;;;;24.70;67.50;;;24.20;61.55;96110.69;4993823;28;19922;-87
2023/07/22 12:24:21;;;;;;;;;;;24.70;67.70;;;24.19;61.67;96120.28;4992824;28;19922;-88
2023/07/22 12:26:49;;;;;;;;;;;24.70;67.70;;;24.20;61.79;96113.50;4960553;28;19928;-87
2023/07/22 12:29:17;;;;;;;;;;;24.70;67.60;;;24.21;61.67;96111.53;4976453;28;20531;-87
2023/07/22 12:31:45;;;;;;;;;;;24.70;67.70;;;24.19;61.66;96114.69;4976584;28;19937;-87
2023/07/22 12:34:13;;;;;;;;;;;24.70;67.60;;;24.19;61.56;96109.09;4976237;28;19922;-87
2023/07/22 12:36:41;;;;;;;;;;;24.70;67.60;;;24.19;61.47;96114.69;4960367;28;19952;-87
2023/07/22 12:39:09;;;;;;;;;;;24.70;67.40;;;24.19;61.54;96111.91;4960280;28;20213;-87
2023/07/22 12:41:39;;;;;;;;;;;24.70;67.50;;;24.19;61.60;96125.88;4992578;28;20235;-87
2023/07/22 12:44:07;;;;;;;;;;;24.70;67.50;;;24.20;61.66;96116.28;4960146;28;19922;-87
2023/07/22 12:46:35;;;;;;;;;;;24.70;67.50;;;24.20;61.24;96121.88;4960222;28;19928;-87
2023/07/22 12:49:03;;;;;;;;;;;24.70;67.30;;;24.20;61.46;96135.88;4992397;28;19925;-88